sensor_id;sensor_type;location;lat;lon;timestamp;P1;durP1;ratioP1;P2;durP2;ratioP2
54247;SDS011;40161;39.768;2.722;2023-01-09T00:02:19;2.38;;;0.80;;
54247;SDS011;40161;39.768;2.722;2023-01-09T00:04:44;2.55;;;0.82;;
54247;SDS011;40161;39.768;2.722;2023-01-09T00:07:10;2.28;;;1.10;;
54247;SDS011;40161;39.768;2.722;2023-01-09T00:09:35;1.55;;;0.70;;
54247;SDS011;40161;39.768;2.722;2023-01-09T00:12:01;3.45;;;0.82;;
54247;SDS011;40161;39.768;2.722;2023-01-09T00:14:27;2.70;;;0.70;;
54247;SDS011;40161;39.768;2.722;2023-01-09T00:16:53;4.63;;;0.73;;
54247;SDS011;40161;39.768;2.722;2023-01-09T00:19:19;4.15;;;1.10;;
54247;SDS011;40161;39.768;2.722;2023-01-09T00:21:44;10.43;;;2.47;;
54247;SDS011;40161;39.768;2.722;2023-01-09T00:24:10;12.27;;;2.60;;
54247;SDS011;40161;39.768;2.722;2023-01-09T00:26:36;9.38;;;2.47;;
54247;SDS011;40161;39.768;2.722;2023-01-09T00:29:01;16.17;;;3.67;;
54247;SDS011;40161;39.768;2.722;2023-01-09T00:31:27;7.15;;;1.55;;
54247;SDS011;40161;39.768;2.722;2023-01-09T00:34:00;8.23;;;1.80;;
54247;SDS011;40161;39.768;2.722;2023-01-09T00:36:29;10.80;;;1.65;;
54247;SDS011;40161;39.768;2.722;2023-01-09T00:38:54;8.60;;;2.00;;
54247;SDS011;40161;39.768;2.722;2023-01-09T00:41:22;6.47;;;1.90;;
54247;SDS011;40161;39.768;2.722;2023-01-09T00:43:56;6.17;;;2.00;;
54247;SDS011;40161;39.768;2.722;2023-01-09T00:46:25;8.35;;;2.05;;
54247;SDS011;40161;39.768;2.722;2023-01-09T00:48:55;4.53;;;1.42;;
54247;SDS011;40161;39.768;2.722;2023-01-09T00:51:21;6.05;;;1.83;;
54247;SDS011;40161;39.768;2.722;2023-01-09T00:53:48;6.60;;;2.08;;
54247;SDS011;40161;39.768;2.722;2023-01-09T00:56:15;8.23;;;1.52;;
54247;SDS011;40161;39.768;2.722;2023-01-09T00:58:43;7.10;;;1.73;;
54247;SDS011;40161;39.768;2.722;2023-01-09T01:01:09;8.02;;;1.60;;
54247;SDS011;40161;39.768;2.722;2023-01-09T01:03:36;7.57;;;1.75;;
54247;SDS011;40161;39.768;2.722;2023-01-09T01:06:02;6.95;;;1.80;;
54247;SDS011;40161;39.768;2.722;2023-01-09T01:08:46;9.43;;;1.70;;
54247;SDS011;40161;39.768;2.722;2023-01-09T01:11:12;5.53;;;1.52;;
54247;SDS011;40161;39.768;2.722;2023-01-09T01:13:38;7.45;;;1.98;;
54247;SDS011;40161;39.768;2.722;2023-01-09T01:16:09;9.50;;;1.60;;
54247;SDS011;40161;39.768;2.722;2023-01-09T01:18:36;8.95;;;1.88;;
54247;SDS011;40161;39.768;2.722;2023-01-09T01:21:06;6.10;;;1.30;;
54247;SDS011;40161;39.768;2.722;2023-01-09T01:23:32;5.28;;;1.25;;
54247;SDS011;40161;39.768;2.722;2023-01-09T01:26:02;6.45;;;1.52;;
54247;SDS011;40161;39.768;2.722;2023-01-09T01:28:35;6.40;;;1.27;;
54247;SDS011;40161;39.768;2.722;2023-01-09T01:31:01;4.28;;;1.40;;
54247;SDS011;40161;39.768;2.722;2023-01-09T01:33:27;8.27;;;1.95;;
54247;SDS011;40161;39.768;2.722;2023-01-09T01:36:03;6.57;;;1.42;;
54247;SDS011;40161;39.768;2.722;2023-01-09T01:38:31;5.65;;;1.38;;
54247;SDS011;40161;39.768;2.722;2023-01-09T01:40:57;5.85;;;1.40;;
54247;SDS011;40161;39.768;2.722;2023-01-09T01:43:24;6.55;;;1.45;;
54247;SDS011;40161;39.768;2.722;2023-01-09T01:45:50;4.50;;;0.93;;
54247;SDS011;40161;39.768;2.722;2023-01-09T01:48:20;3.38;;;0.90;;
54247;SDS011;40161;39.768;2.722;2023-01-09T01:58:49;4.40;;;1.30;;
54247;SDS011;40161;39.768;2.722;2023-01-09T02:01:20;5.32;;;1.33;;
54247;SDS011;40161;39.768;2.722;2023-01-09T02:03:47;5.25;;;1.00;;
54247;SDS011;40161;39.768;2.722;2023-01-09T02:06:15;3.75;;;0.85;;
54247;SDS011;40161;39.768;2.722;2023-01-09T02:08:41;6.05;;;1.40;;
54247;SDS011;40161;39.768;2.722;2023-01-09T02:11:07;5.70;;;1.10;;
54247;SDS011;40161;39.768;2.722;2023-01-09T02:13:33;7.05;;;1.80;;
54247;SDS011;40161;39.768;2.722;2023-01-09T02:16:25;4.00;;;0.70;;
54247;SDS011;40161;39.768;2.722;2023-01-09T02:19:09;7.55;;;0.93;;
54247;SDS011;40161;39.768;2.722;2023-01-09T02:22:01;4.72;;;0.93;;
54247;SDS011;40161;39.768;2.722;2023-01-09T02:32:42;3.67;;;0.80;;
54247;SDS011;40161;39.768;2.722;2023-01-09T02:43:38;4.82;;;0.65;;
54247;SDS011;40161;39.768;2.722;2023-01-09T02:46:05;2.70;;;0.80;;
54247;SDS011;40161;39.768;2.722;2023-01-09T02:48:40;2.58;;;0.60;;
54247;SDS011;40161;39.768;2.722;2023-01-09T02:51:10;1.55;;;0.70;;
54247;SDS011;40161;39.768;2.722;2023-01-09T02:53:54;2.97;;;0.60;;
54247;SDS011;40161;39.768;2.722;2023-01-09T02:56:55;1.27;;;0.40;;
54247;SDS011;40161;39.768;2.722;2023-01-09T03:00:14;2.17;;;0.80;;
54247;SDS011;40161;39.768;2.722;2023-01-09T03:05:24;1.45;;;0.50;;
54247;SDS011;40161;39.768;2.722;2023-01-09T03:08:03;2.83;;;0.60;;
54247;SDS011;40161;39.768;2.722;2023-01-09T03:10:40;3.65;;;0.77;;
54247;SDS011;40161;39.768;2.722;2023-01-09T03:13:24;3.53;;;0.63;;
54247;SDS011;40161;39.768;2.722;2023-01-09T03:15:55;4.93;;;1.00;;
54247;SDS011;40161;39.768;2.722;2023-01-09T03:18:24;6.88;;;1.30;;
54247;SDS011;40161;39.768;2.722;2023-01-09T03:20:52;6.43;;;0.98;;
54247;SDS011;40161;39.768;2.722;2023-01-09T03:23:20;5.22;;;1.10;;
54247;SDS011;40161;39.768;2.722;2023-01-09T03:25:46;4.40;;;0.85;;
54247;SDS011;40161;39.768;2.722;2023-01-09T03:28:32;5.00;;;1.00;;
54247;SDS011;40161;39.768;2.722;2023-01-09T03:30:57;6.15;;;1.00;;
54247;SDS011;40161;39.768;2.722;2023-01-09T03:33:22;5.32;;;1.00;;
54247;SDS011;40161;39.768;2.722;2023-01-09T03:35:48;5.82;;;1.50;;
54247;SDS011;40161;39.768;2.722;2023-01-09T03:38:14;7.57;;;1.00;;
54247;SDS011;40161;39.768;2.722;2023-01-09T03:40:39;6.43;;;1.33;;
54247;SDS011;40161;39.768;2.722;2023-01-09T03:43:07;10.88;;;2.50;;
54247;SDS011;40161;39.768;2.722;2023-01-09T03:45:33;14.05;;;5.07;;
54247;SDS011;40161;39.768;2.722;2023-01-09T03:47:58;10.70;;;1.65;;
54247;SDS011;40161;39.768;2.722;2023-01-09T03:50:24;8.68;;;1.38;;
54247;SDS011;40161;39.768;2.722;2023-01-09T03:52:49;8.98;;;1.30;;
54247;SDS011;40161;39.768;2.722;2023-01-09T03:55:15;7.68;;;1.33;;
54247;SDS011;40161;39.768;2.722;2023-01-09T03:57:40;8.70;;;1.40;;
54247;SDS011;40161;39.768;2.722;2023-01-09T04:00:06;9.55;;;1.58;;
54247;SDS011;40161;39.768;2.722;2023-01-09T04:02:32;3.97;;;0.90;;
54247;SDS011;40161;39.768;2.722;2023-01-09T04:04:58;5.25;;;1.08;;
54247;SDS011;40161;39.768;2.722;2023-01-09T04:07:23;6.13;;;1.42;;
54247;SDS011;40161;39.768;2.722;2023-01-09T04:09:49;5.35;;;1.00;;
54247;SDS011;40161;39.768;2.722;2023-01-09T04:12:14;8.50;;;1.50;;
54247;SDS011;40161;39.768;2.722;2023-01-09T04:14:40;6.60;;;1.33;;
54247;SDS011;40161;39.768;2.722;2023-01-09T04:17:05;9.45;;;1.80;;
54247;SDS011;40161;39.768;2.722;2023-01-09T04:19:31;8.77;;;1.42;;
54247;SDS011;40161;39.768;2.722;2023-01-09T04:21:56;7.68;;;1.70;;
54247;SDS011;40161;39.768;2.722;2023-01-09T04:24:22;9.35;;;1.63;;
54247;SDS011;40161;39.768;2.722;2023-01-09T04:26:47;7.90;;;1.83;;
54247;SDS011;40161;39.768;2.722;2023-01-09T04:29:13;8.25;;;1.70;;
54247;SDS011;40161;39.768;2.722;2023-01-09T04:31:38;10.57;;;1.63;;
54247;SDS011;40161;39.768;2.722;2023-01-09T04:34:04;12.05;;;1.55;;
54247;SDS011;40161;39.768;2.722;2023-01-09T04:36:29;8.45;;;1.90;;
54247;SDS011;40161;39.768;2.722;2023-01-09T04:38:55;8.63;;;1.30;;
54247;SDS011;40161;39.768;2.722;2023-01-09T04:41:21;9.63;;;1.55;;
54247;SDS011;40161;39.768;2.722;2023-01-09T04:44:05;12.05;;;1.60;;
54247;SDS011;40161;39.768;2.722;2023-01-09T04:46:31;4.90;;;1.23;;
54247;SDS011;40161;39.768;2.722;2023-01-09T04:48:56;4.90;;;0.95;;
54247;SDS011;40161;39.768;2.722;2023-01-09T04:51:22;8.32;;;1.95;;
54247;SDS011;40161;39.768;2.722;2023-01-09T04:53:47;8.15;;;1.92;;
54247;SDS011;40161;39.768;2.722;2023-01-09T04:56:13;11.35;;;1.65;;
54247;SDS011;40161;39.768;2.722;2023-01-09T04:58:38;7.63;;;1.80;;
54247;SDS011;40161;39.768;2.722;2023-01-09T05:01:04;11.60;;;1.42;;
54247;SDS011;40161;39.768;2.722;2023-01-09T05:03:29;7.90;;;1.63;;
54247;SDS011;40161;39.768;2.722;2023-01-09T05:05:55;9.52;;;1.83;;
54247;SDS011;40161;39.768;2.722;2023-01-09T05:08:20;7.80;;;1.40;;
54247;SDS011;40161;39.768;2.722;2023-01-09T05:10:46;11.48;;;2.67;;
54247;SDS011;40161;39.768;2.722;2023-01-09T05:13:11;12.27;;;2.80;;
54247;SDS011;40161;39.768;2.722;2023-01-09T05:15:37;9.25;;;1.85;;
54247;SDS011;40161;39.768;2.722;2023-01-09T05:18:02;12.00;;;1.83;;
54247;SDS011;40161;39.768;2.722;2023-01-09T05:20:28;8.80;;;2.00;;
54247;SDS011;40161;39.768;2.722;2023-01-09T05:22:53;12.13;;;2.28;;
54247;SDS011;40161;39.768;2.722;2023-01-09T05:25:19;12.27;;;2.25;;
54247;SDS011;40161;39.768;2.722;2023-01-09T05:27:44;10.07;;;2.20;;
54247;SDS011;40161;39.768;2.722;2023-01-09T05:30:11;10.18;;;2.20;;
54247;SDS011;40161;39.768;2.722;2023-01-09T05:32:37;8.25;;;2.10;;
54247;SDS011;40161;39.768;2.722;2023-01-09T05:35:03;13.63;;;2.00;;
54247;SDS011;40161;39.768;2.722;2023-01-09T05:37:29;10.07;;;2.00;;
54247;SDS011;40161;39.768;2.722;2023-01-09T05:39:54;12.10;;;2.50;;
54247;SDS011;40161;39.768;2.722;2023-01-09T05:42:20;11.38;;;1.90;;
54247;SDS011;40161;39.768;2.722;2023-01-09T05:44:45;10.13;;;2.30;;
54247;SDS011;40161;39.768;2.722;2023-01-09T05:47:11;12.20;;;2.78;;
54247;SDS011;40161;39.768;2.722;2023-01-09T05:49:37;11.45;;;2.72;;
54247;SDS011;40161;39.768;2.722;2023-01-09T05:52:02;10.63;;;2.00;;
54247;SDS011;40161;39.768;2.722;2023-01-09T05:54:29;8.13;;;2.78;;
54247;SDS011;40161;39.768;2.722;2023-01-09T05:56:54;10.43;;;1.92;;
54247;SDS011;40161;39.768;2.722;2023-01-09T05:59:20;9.27;;;1.85;;
54247;SDS011;40161;39.768;2.722;2023-01-09T06:01:47;13.73;;;2.08;;
54247;SDS011;40161;39.768;2.722;2023-01-09T06:04:12;8.88;;;1.90;;
54247;SDS011;40161;39.768;2.722;2023-01-09T06:06:38;6.82;;;1.60;;
54247;SDS011;40161;39.768;2.722;2023-01-09T06:09:05;11.32;;;1.95;;
54247;SDS011;40161;39.768;2.722;2023-01-09T06:11:30;12.07;;;2.08;;
54247;SDS011;40161;39.768;2.722;2023-01-09T06:13:58;7.80;;;1.85;;
54247;SDS011;40161;39.768;2.722;2023-01-09T06:16:24;11.02;;;2.17;;
54247;SDS011;40161;39.768;2.722;2023-01-09T06:18:49;9.82;;;2.03;;
54247;SDS011;40161;39.768;2.722;2023-01-09T06:21:15;11.63;;;3.08;;
54247;SDS011;40161;39.768;2.722;2023-01-09T06:23:41;10.82;;;2.05;;
54247;SDS011;40161;39.768;2.722;2023-01-09T06:26:07;10.25;;;2.00;;
54247;SDS011;40161;39.768;2.722;2023-01-09T06:28:32;11.15;;;2.10;;
54247;SDS011;40161;39.768;2.722;2023-01-09T06:30:58;13.05;;;2.35;;
54247;SDS011;40161;39.768;2.722;2023-01-09T06:33:23;11.55;;;1.92;;
54247;SDS011;40161;39.768;2.722;2023-01-09T06:35:49;7.03;;;1.77;;
54247;SDS011;40161;39.768;2.722;2023-01-09T06:38:14;8.30;;;1.73;;
54247;SDS011;40161;39.768;2.722;2023-01-09T06:40:40;12.55;;;2.20;;
54247;SDS011;40161;39.768;2.722;2023-01-09T06:43:05;10.38;;;2.33;;
54247;SDS011;40161;39.768;2.722;2023-01-09T06:45:31;9.05;;;2.10;;
54247;SDS011;40161;39.768;2.722;2023-01-09T06:47:56;12.35;;;2.20;;
54247;SDS011;40161;39.768;2.722;2023-01-09T06:50:23;13.00;;;2.35;;
54247;SDS011;40161;39.768;2.722;2023-01-09T06:52:48;7.53;;;2.08;;
54247;SDS011;40161;39.768;2.722;2023-01-09T06:55:14;12.18;;;2.10;;
54247;SDS011;40161;39.768;2.722;2023-01-09T06:57:41;12.68;;;5.20;;
54247;SDS011;40161;39.768;2.722;2023-01-09T07:00:07;10.98;;;2.65;;
54247;SDS011;40161;39.768;2.722;2023-01-09T07:02:33;9.77;;;2.65;;
54247;SDS011;40161;39.768;2.722;2023-01-09T07:04:59;9.43;;;2.47;;
54247;SDS011;40161;39.768;2.722;2023-01-09T07:07:26;8.77;;;2.53;;
54247;SDS011;40161;39.768;2.722;2023-01-09T07:09:52;11.95;;;2.80;;
54247;SDS011;40161;39.768;2.722;2023-01-09T07:12:17;13.40;;;2.58;;
54247;SDS011;40161;39.768;2.722;2023-01-09T07:14:43;34.05;;;5.07;;
54247;SDS011;40161;39.768;2.722;2023-01-09T07:17:10;16.05;;;3.13;;
54247;SDS011;40161;39.768;2.722;2023-01-09T07:19:37;13.00;;;2.35;;
54247;SDS011;40161;39.768;2.722;2023-01-09T07:22:03;20.85;;;3.20;;
54247;SDS011;40161;39.768;2.722;2023-01-09T07:24:28;17.80;;;3.28;;
54247;SDS011;40161;39.768;2.722;2023-01-09T07:26:54;12.70;;;2.95;;
54247;SDS011;40161;39.768;2.722;2023-01-09T07:29:19;16.83;;;2.78;;
54247;SDS011;40161;39.768;2.722;2023-01-09T07:31:45;15.85;;;3.00;;
54247;SDS011;40161;39.768;2.722;2023-01-09T07:34:11;15.65;;;2.60;;
54247;SDS011;40161;39.768;2.722;2023-01-09T07:36:36;12.20;;;2.45;;
54247;SDS011;40161;39.768;2.722;2023-01-09T07:39:02;14.10;;;2.92;;
54247;SDS011;40161;39.768;2.722;2023-01-09T07:41:27;12.35;;;2.53;;
54247;SDS011;40161;39.768;2.722;2023-01-09T07:43:53;9.80;;;2.67;;
54247;SDS011;40161;39.768;2.722;2023-01-09T07:46:18;8.88;;;2.30;;
54247;SDS011;40161;39.768;2.722;2023-01-09T07:48:44;13.23;;;3.58;;
54247;SDS011;40161;39.768;2.722;2023-01-09T07:51:10;13.23;;;3.92;;
54247;SDS011;40161;39.768;2.722;2023-01-09T07:53:35;13.95;;;3.35;;
54247;SDS011;40161;39.768;2.722;2023-01-09T07:56:01;15.02;;;3.20;;
54247;SDS011;40161;39.768;2.722;2023-01-09T07:58:26;14.73;;;4.50;;
54247;SDS011;40161;39.768;2.722;2023-01-09T08:00:52;19.73;;;6.05;;
54247;SDS011;40161;39.768;2.722;2023-01-09T08:03:17;18.60;;;5.80;;
54247;SDS011;40161;39.768;2.722;2023-01-09T08:05:43;27.75;;;8.63;;
54247;SDS011;40161;39.768;2.722;2023-01-09T08:08:10;15.90;;;4.88;;
54247;SDS011;40161;39.768;2.722;2023-01-09T08:10:35;14.48;;;3.92;;
54247;SDS011;40161;39.768;2.722;2023-01-09T08:13:01;10.55;;;3.33;;
54247;SDS011;40161;39.768;2.722;2023-01-09T08:15:26;13.10;;;3.58;;
54247;SDS011;40161;39.768;2.722;2023-01-09T08:17:53;12.13;;;3.85;;
54247;SDS011;40161;39.768;2.722;2023-01-09T08:20:19;7.88;;;3.10;;
54247;SDS011;40161;39.768;2.722;2023-01-09T08:22:45;25.02;;;12.18;;
54247;SDS011;40161;39.768;2.722;2023-01-09T08:25:14;16.17;;;7.68;;
54247;SDS011;40161;39.768;2.722;2023-01-09T08:27:40;11.85;;;4.65;;
54247;SDS011;40161;39.768;2.722;2023-01-09T08:30:07;15.40;;;5.20;;
54247;SDS011;40161;39.768;2.722;2023-01-09T08:32:34;11.05;;;3.63;;
54247;SDS011;40161;39.768;2.722;2023-01-09T08:35:01;11.20;;;4.18;;
54247;SDS011;40161;39.768;2.722;2023-01-09T08:37:27;13.07;;;4.82;;
54247;SDS011;40161;39.768;2.722;2023-01-09T08:39:53;11.70;;;4.55;;
54247;SDS011;40161;39.768;2.722;2023-01-09T08:42:18;13.32;;;4.35;;
54247;SDS011;40161;39.768;2.722;2023-01-09T08:45:03;13.40;;;4.88;;
54247;SDS011;40161;39.768;2.722;2023-01-09T08:47:47;12.68;;;4.82;;
54247;SDS011;40161;39.768;2.722;2023-01-09T08:50:13;12.82;;;4.38;;
54247;SDS011;40161;39.768;2.722;2023-01-09T08:52:39;15.38;;;4.32;;
54247;SDS011;40161;39.768;2.722;2023-01-09T08:55:04;10.35;;;3.88;;
54247;SDS011;40161;39.768;2.722;2023-01-09T08:57:30;11.70;;;4.13;;
54247;SDS011;40161;39.768;2.722;2023-01-09T08:59:56;13.18;;;4.10;;
54247;SDS011;40161;39.768;2.722;2023-01-09T09:02:22;16.10;;;4.43;;
54247;SDS011;40161;39.768;2.722;2023-01-09T09:04:47;12.48;;;4.00;;
54247;SDS011;40161;39.768;2.722;2023-01-09T09:07:16;9.25;;;3.75;;
54247;SDS011;40161;39.768;2.722;2023-01-09T09:09:50;10.82;;;3.70;;
54247;SDS011;40161;39.768;2.722;2023-01-09T09:12:18;12.75;;;4.97;;
54247;SDS011;40161;39.768;2.722;2023-01-09T09:14:44;9.95;;;3.47;;
54247;SDS011;40161;39.768;2.722;2023-01-09T09:17:28;17.13;;;8.60;;
54247;SDS011;40161;39.768;2.722;2023-01-09T09:19:54;12.80;;;5.38;;
54247;SDS011;40161;39.768;2.722;2023-01-09T09:22:19;14.82;;;5.90;;
54247;SDS011;40161;39.768;2.722;2023-01-09T09:24:45;11.93;;;5.93;;
54247;SDS011;40161;39.768;2.722;2023-01-09T09:27:11;16.58;;;6.80;;
54247;SDS011;40161;39.768;2.722;2023-01-09T09:29:37;14.93;;;6.05;;
54247;SDS011;40161;39.768;2.722;2023-01-09T09:32:02;16.75;;;6.40;;
54247;SDS011;40161;39.768;2.722;2023-01-09T09:34:28;15.00;;;6.43;;
54247;SDS011;40161;39.768;2.722;2023-01-09T09:36:54;18.15;;;6.00;;
54247;SDS011;40161;39.768;2.722;2023-01-09T09:39:19;12.40;;;4.15;;
54247;SDS011;40161;39.768;2.722;2023-01-09T09:50:40;11.52;;;5.10;;
54247;SDS011;40161;39.768;2.722;2023-01-09T09:53:54;16.88;;;5.68;;
54247;SDS011;40161;39.768;2.722;2023-01-09T09:56:21;10.63;;;2.75;;
54247;SDS011;40161;39.768;2.722;2023-01-09T09:58:52;5.97;;;1.60;;
54247;SDS011;40161;39.768;2.722;2023-01-09T10:01:33;9.18;;;2.13;;
54247;SDS011;40161;39.768;2.722;2023-01-09T10:04:05;4.35;;;1.50;;
54247;SDS011;40161;39.768;2.722;2023-01-09T10:06:39;8.80;;;1.70;;
54247;SDS011;40161;39.768;2.722;2023-01-09T10:11:48;7.22;;;1.40;;
54247;SDS011;40161;39.768;2.722;2023-01-09T10:14:20;9.60;;;3.85;;
54247;SDS011;40161;39.768;2.722;2023-01-09T10:25:30;14.63;;;6.22;;
54247;SDS011;40161;39.768;2.722;2023-01-09T10:30:42;8.43;;;2.80;;
54247;SDS011;40161;39.768;2.722;2023-01-09T10:38:58;4.20;;;1.20;;
54247;SDS011;40161;39.768;2.722;2023-01-09T10:44:40;16.05;;;6.50;;
54247;SDS011;40161;39.768;2.722;2023-01-09T10:47:02;4.78;;;1.30;;
54247;SDS011;40161;39.768;2.722;2023-01-09T10:49:32;8.98;;;2.40;;
54247;SDS011;40161;39.768;2.722;2023-01-09T10:54:24;6.57;;;1.83;;
54247;SDS011;40161;39.768;2.722;2023-01-09T10:56:53;6.88;;;1.42;;
54247;SDS011;40161;39.768;2.722;2023-01-09T10:59:30;8.68;;;2.83;;
54247;SDS011;40161;39.768;2.722;2023-01-09T11:01:55;7.97;;;1.50;;
54247;SDS011;40161;39.768;2.722;2023-01-09T11:04:31;5.70;;;1.70;;
54247;SDS011;40161;39.768;2.722;2023-01-09T11:09:57;5.60;;;1.50;;
54247;SDS011;40161;39.768;2.722;2023-01-09T11:12:24;9.30;;;1.75;;
54247;SDS011;40161;39.768;2.722;2023-01-09T11:14:51;8.75;;;2.50;;
54247;SDS011;40161;39.768;2.722;2023-01-09T11:17:21;9.50;;;3.92;;
54247;SDS011;40161;39.768;2.722;2023-01-09T11:20:00;11.75;;;2.03;;
54247;SDS011;40161;39.768;2.722;2023-01-09T11:22:27;5.93;;;1.73;;
54247;SDS011;40161;39.768;2.722;2023-01-09T11:25:00;6.50;;;1.50;;
54247;SDS011;40161;39.768;2.722;2023-01-09T11:27:26;7.10;;;1.17;;
54247;SDS011;40161;39.768;2.722;2023-01-09T11:32:33;8.77;;;1.88;;
54247;SDS011;40161;39.768;2.722;2023-01-09T11:34:59;7.40;;;1.95;;
54247;SDS011;40161;39.768;2.722;2023-01-09T11:37:28;17.23;;;6.07;;
54247;SDS011;40161;39.768;2.722;2023-01-09T11:39:56;12.30;;;2.33;;
54247;SDS011;40161;39.768;2.722;2023-01-09T11:42:24;8.23;;;2.55;;
54247;SDS011;40161;39.768;2.722;2023-01-09T11:47:48;6.65;;;1.92;;
54247;SDS011;40161;39.768;2.722;2023-01-09T11:52:44;9.70;;;2.45;;
54247;SDS011;40161;39.768;2.722;2023-01-09T11:55:10;6.70;;;1.40;;
54247;SDS011;40161;39.768;2.722;2023-01-09T11:57:40;7.65;;;2.35;;
54247;SDS011;40161;39.768;2.722;2023-01-09T12:00:19;9.48;;;2.28;;
54247;SDS011;40161;39.768;2.722;2023-01-09T12:05:51;6.68;;;1.80;;
54247;SDS011;40161;39.768;2.722;2023-01-09T12:21:47;6.60;;;1.90;;
54247;SDS011;40161;39.768;2.722;2023-01-09T12:32:35;8.95;;;2.33;;
54247;SDS011;40161;39.768;2.722;2023-01-09T12:35:31;9.02;;;2.45;;
54247;SDS011;40161;39.768;2.722;2023-01-09T12:46:41;8.65;;;1.75;;
54247;SDS011;40161;39.768;2.722;2023-01-09T12:49:18;5.07;;;1.50;;
54247;SDS011;40161;39.768;2.722;2023-01-09T12:54:38;9.03;;;1.90;;
54247;SDS011;40161;39.768;2.722;2023-01-09T12:59:51;6.38;;;2.22;;
54247;SDS011;40161;39.768;2.722;2023-01-09T13:02:31;4.03;;;1.40;;
54247;SDS011;40161;39.768;2.722;2023-01-09T13:05:07;5.22;;;1.30;;
54247;SDS011;40161;39.768;2.722;2023-01-09T13:10:21;11.07;;;2.55;;
54247;SDS011;40161;39.768;2.722;2023-01-09T13:12:51;7.65;;;1.63;;
54247;SDS011;40161;39.768;2.722;2023-01-09T13:18:11;7.30;;;1.55;;
54247;SDS011;40161;39.768;2.722;2023-01-09T13:20:45;6.85;;;0.90;;
54247;SDS011;40161;39.768;2.722;2023-01-09T13:25:54;4.80;;;1.50;;
54247;SDS011;40161;39.768;2.722;2023-01-09T13:28:25;4.18;;;1.35;;
54247;SDS011;40161;39.768;2.722;2023-01-09T13:34:36;7.03;;;1.70;;
54247;SDS011;40161;39.768;2.722;2023-01-09T13:37:03;6.13;;;1.45;;
54247;SDS011;40161;39.768;2.722;2023-01-09T13:39:30;8.88;;;1.52;;
54247;SDS011;40161;39.768;2.722;2023-01-09T13:42:01;9.15;;;2.75;;
54247;SDS011;40161;39.768;2.722;2023-01-09T13:44:48;8.35;;;1.33;;
54247;SDS011;40161;39.768;2.722;2023-01-09T13:47:25;6.38;;;1.50;;
54247;SDS011;40161;39.768;2.722;2023-01-09T13:52:34;5.22;;;1.40;;
54247;SDS011;40161;39.768;2.722;2023-01-09T14:10:33;4.28;;;1.10;;
54247;SDS011;40161;39.768;2.722;2023-01-09T14:13:05;7.35;;;1.30;;
54247;SDS011;40161;39.768;2.722;2023-01-09T14:15:38;7.82;;;1.38;;
54247;SDS011;40161;39.768;2.722;2023-01-09T14:18:06;6.07;;;1.65;;
54247;SDS011;40161;39.768;2.722;2023-01-09T14:21:13;7.28;;;2.67;;
54247;SDS011;40161;39.768;2.722;2023-01-09T14:23:36;6.88;;;1.70;;
54247;SDS011;40161;39.768;2.722;2023-01-09T14:26:02;6.47;;;1.13;;
54247;SDS011;40161;39.768;2.722;2023-01-09T14:28:30;6.03;;;1.10;;
54247;SDS011;40161;39.768;2.722;2023-01-09T14:38:37;6.97;;;1.70;;
54247;SDS011;40161;39.768;2.722;2023-01-09T14:44:06;8.32;;;1.60;;
54247;SDS011;40161;39.768;2.722;2023-01-09T14:46:44;9.52;;;2.10;;
54247;SDS011;40161;39.768;2.722;2023-01-09T14:52:00;5.93;;;1.55;;
54247;SDS011;40161;39.768;2.722;2023-01-09T14:54:32;6.30;;;1.52;;
54247;SDS011;40161;39.768;2.722;2023-01-09T14:57:01;4.75;;;1.40;;
54247;SDS011;40161;39.768;2.722;2023-01-09T14:59:27;5.90;;;1.95;;
54247;SDS011;40161;39.768;2.722;2023-01-09T15:01:53;10.93;;;1.52;;
54247;SDS011;40161;39.768;2.722;2023-01-09T15:04:35;6.65;;;1.92;;
54247;SDS011;40161;39.768;2.722;2023-01-09T15:11:57;8.40;;;2.38;;
54247;SDS011;40161;39.768;2.722;2023-01-09T15:14:29;6.13;;;1.77;;
54247;SDS011;40161;39.768;2.722;2023-01-09T15:16:58;10.52;;;2.22;;
54247;SDS011;40161;39.768;2.722;2023-01-09T15:19:25;8.55;;;2.00;;
54247;SDS011;40161;39.768;2.722;2023-01-09T15:21:56;5.75;;;1.75;;
54247;SDS011;40161;39.768;2.722;2023-01-09T15:24:25;5.63;;;1.38;;
54247;SDS011;40161;39.768;2.722;2023-01-09T15:26:57;6.63;;;1.92;;
54247;SDS011;40161;39.768;2.722;2023-01-09T15:29:27;8.43;;;1.50;;
54247;SDS011;40161;39.768;2.722;2023-01-09T15:32:03;7.60;;;1.70;;
54247;SDS011;40161;39.768;2.722;2023-01-09T15:34:29;10.25;;;1.85;;
54247;SDS011;40161;39.768;2.722;2023-01-09T15:36:56;9.05;;;2.42;;
54247;SDS011;40161;39.768;2.722;2023-01-09T15:39:29;7.97;;;1.55;;
54247;SDS011;40161;39.768;2.722;2023-01-09T15:42:00;10.88;;;2.72;;
54247;SDS011;40161;39.768;2.722;2023-01-09T15:44:44;12.38;;;3.95;;
54247;SDS011;40161;39.768;2.722;2023-01-09T15:47:16;12.13;;;4.30;;
54247;SDS011;40161;39.768;2.722;2023-01-09T15:49:46;4.93;;;1.20;;
54247;SDS011;40161;39.768;2.722;2023-01-09T15:52:12;5.25;;;1.40;;
54247;SDS011;40161;39.768;2.722;2023-01-09T15:54:41;6.57;;;1.77;;
54247;SDS011;40161;39.768;2.722;2023-01-09T15:59:52;4.53;;;1.55;;
54247;SDS011;40161;39.768;2.722;2023-01-09T16:02:20;4.22;;;0.95;;
54247;SDS011;40161;39.768;2.722;2023-01-09T16:05:12;4.15;;;1.20;;
54247;SDS011;40161;39.768;2.722;2023-01-09T16:07:43;4.43;;;1.40;;
54247;SDS011;40161;39.768;2.722;2023-01-09T16:10:23;3.67;;;2.05;;
54247;SDS011;40161;39.768;2.722;2023-01-09T16:12:56;4.30;;;1.30;;
54247;SDS011;40161;39.768;2.722;2023-01-09T16:15:22;3.97;;;1.20;;
54247;SDS011;40161;39.768;2.722;2023-01-09T16:20:29;3.67;;;1.42;;
54247;SDS011;40161;39.768;2.722;2023-01-09T16:22:55;4.50;;;1.25;;
54247;SDS011;40161;39.768;2.722;2023-01-09T16:25:23;9.50;;;2.95;;
54247;SDS011;40161;39.768;2.722;2023-01-09T16:28:08;6.38;;;1.75;;
54247;SDS011;40161;39.768;2.722;2023-01-09T16:30:48;4.28;;;1.60;;
54247;SDS011;40161;39.768;2.722;2023-01-09T16:33:22;5.35;;;1.40;;
54247;SDS011;40161;39.768;2.722;2023-01-09T16:35:50;4.50;;;1.73;;
54247;SDS011;40161;39.768;2.722;2023-01-09T16:38:16;4.45;;;1.45;;
54247;SDS011;40161;39.768;2.722;2023-01-09T16:43:41;2.92;;;1.20;;
54247;SDS011;40161;39.768;2.722;2023-01-09T16:46:06;4.75;;;1.23;;
54247;SDS011;40161;39.768;2.722;2023-01-09T16:48:32;6.10;;;1.38;;
54247;SDS011;40161;39.768;2.722;2023-01-09T16:50:58;4.25;;;1.20;;
54247;SDS011;40161;39.768;2.722;2023-01-09T16:53:23;5.80;;;1.30;;
54247;SDS011;40161;39.768;2.722;2023-01-09T16:55:51;5.47;;;2.20;;
54247;SDS011;40161;39.768;2.722;2023-01-09T16:58:27;16.38;;;8.88;;
54247;SDS011;40161;39.768;2.722;2023-01-09T17:00:54;5.18;;;2.10;;
54247;SDS011;40161;39.768;2.722;2023-01-09T17:03:21;6.43;;;2.08;;
54247;SDS011;40161;39.768;2.722;2023-01-09T17:05:56;5.05;;;1.60;;
54247;SDS011;40161;39.768;2.722;2023-01-09T17:08:25;7.10;;;2.15;;
54247;SDS011;40161;39.768;2.722;2023-01-09T17:10:54;5.35;;;2.25;;
54247;SDS011;40161;39.768;2.722;2023-01-09T17:13:20;8.93;;;3.53;;
54247;SDS011;40161;39.768;2.722;2023-01-09T17:15:46;6.15;;;2.00;;
54247;SDS011;40161;39.768;2.722;2023-01-09T17:18:16;11.70;;;4.95;;
54247;SDS011;40161;39.768;2.722;2023-01-09T17:20:44;4.30;;;1.75;;
54247;SDS011;40161;39.768;2.722;2023-01-09T17:23:15;9.10;;;3.40;;
54247;SDS011;40161;39.768;2.722;2023-01-09T17:25:41;5.93;;;1.70;;
54247;SDS011;40161;39.768;2.722;2023-01-09T17:28:26;4.22;;;1.25;;
54247;SDS011;40161;39.768;2.722;2023-01-09T17:31:03;5.65;;;1.63;;
54247;SDS011;40161;39.768;2.722;2023-01-09T17:33:32;6.38;;;2.13;;
54247;SDS011;40161;39.768;2.722;2023-01-09T17:35:58;9.77;;;3.97;;
54247;SDS011;40161;39.768;2.722;2023-01-09T17:38:26;7.75;;;3.03;;
54247;SDS011;40161;39.768;2.722;2023-01-09T17:40:51;7.55;;;3.05;;
54247;SDS011;40161;39.768;2.722;2023-01-09T17:43:19;6.28;;;1.80;;